Sect Los Olmeda, Puerto Rico
Current Conditions -  °F | °C
As of 4:56 PM on Friday 28 Nov 2014 (Local Time) from TJSJ Reporting Station
Few Clouds Few Clouds  
Wind Chill: 82°   Ceiling: Unl
Heat Index: 87°   Visibility: 10mi
Dew Point: 72°   Wind: 14mph
Humidity: 71%   Direction: 70°ENE
Pressure: 29.91"   Gusts: NA
Location:  18.4144°N, 66.3319°W
Report Text: TJSJ 282056Z 07012KT 10SM FEW037 28/22 A2991 RMK AO2 SLP128 T02780222 53001
Loading
Personal Weather Stations






























Interactive Weather Map New forecast layout! Learn more

10-Day Weather Forecast

Advertisements
Track Severe Weather on mobile